Terminal Aerodrome Forecast
Issued by NWS Duluth, MN

Home | Current Version | Previous Version | Text Only | Print | Product List | Glossary On
Versions: 1 2 3 4 5 6 7 8 9 10 11 12 13 14 15 16 17 18 19 20 21 22 23 24 25 26 27 28 29
671
FTUS43 KDLH 310630 AAA
TAFDLH
TAF AMD
KDLH 310630Z 3106/0106 09020G28KT P6SM BKN060
     FM310900 08017G25KT P6SM -SHRA VCTS SCT012CB BKN050
     FM311500 08017G26KT 5SM BR VCSH SCT004 OVC010
     FM311700 07014G22KT 4SM -RA BR VCTS SCT004 OVC008CB
     FM312200 08013KT 5SM BR VCSH OVC008
     FM010300 10006KT 2SM BR OVC005=

USA.gov is the U.S. government's official web portal to all federal, state and local government web resources and services.